sensor_id;sensor_type;location;lat;lon;timestamp;P1;durP1;ratioP1;P2;durP2;ratioP2
47625;SDS011;33342;45.574;9.252;2022-09-09T00:09:48;15.68;;;8.50;;
47625;SDS011;33342;45.574;9.252;2022-09-09T00:12:34;18.45;;;9.00;;
47625;SDS011;33342;45.574;9.252;2022-09-09T00:15:16;13.20;;;9.30;;
47625;SDS011;33342;45.574;9.252;2022-09-09T00:20:21;14.13;;;9.68;;
47625;SDS011;33342;45.574;9.252;2022-09-09T00:28:48;13.30;;;9.32;;
47625;SDS011;33342;45.574;9.252;2022-09-09T00:31:23;13.88;;;9.65;;
47625;SDS011;33342;45.574;9.252;2022-09-09T00:33:55;15.13;;;9.40;;
47625;SDS011;33342;45.574;9.252;2022-09-09T00:36:27;14.00;;;10.20;;
47625;SDS011;33342;45.574;9.252;2022-09-09T00:38:56;16.05;;;9.20;;
47625;SDS011;33342;45.574;9.252;2022-09-09T00:41:35;14.20;;;10.07;;
47625;SDS011;33342;45.574;9.252;2022-09-09T00:55:27;15.32;;;10.27;;
47625;SDS011;33342;45.574;9.252;2022-09-09T00:57:58;12.95;;;9.10;;
47625;SDS011;33342;45.574;9.252;2022-09-09T01:00:27;17.75;;;10.02;;
47625;SDS011;33342;45.574;9.252;2022-09-09T01:03:18;13.77;;;10.00;;
47625;SDS011;33342;45.574;9.252;2022-09-09T01:08:40;15.00;;;9.88;;
47625;SDS011;33342;45.574;9.252;2022-09-09T01:11:32;15.35;;;10.80;;
47625;SDS011;33342;45.574;9.252;2022-09-09T01:25:29;15.23;;;10.30;;
47625;SDS011;33342;45.574;9.252;2022-09-09T01:28:21;14.35;;;10.25;;
47625;SDS011;33342;45.574;9.252;2022-09-09T01:30:57;16.02;;;11.02;;
47625;SDS011;33342;45.574;9.252;2022-09-09T01:33:28;15.75;;;10.57;;
47625;SDS011;33342;45.574;9.252;2022-09-09T01:35:57;15.32;;;10.70;;
47625;SDS011;33342;45.574;9.252;2022-09-09T01:38:35;19.85;;;10.43;;
47625;SDS011;33342;45.574;9.252;2022-09-09T01:41:03;16.13;;;11.40;;
47625;SDS011;33342;45.574;9.252;2022-09-09T01:43:41;22.48;;;10.30;;
47625;SDS011;33342;45.574;9.252;2022-09-09T01:46:08;17.52;;;10.40;;
47625;SDS011;33342;45.574;9.252;2022-09-09T01:48:36;16.35;;;10.98;;
47625;SDS011;33342;45.574;9.252;2022-09-09T01:51:08;17.40;;;11.02;;
47625;SDS011;33342;45.574;9.252;2022-09-09T01:53:37;15.75;;;11.18;;
47625;SDS011;33342;45.574;9.252;2022-09-09T02:04:31;15.88;;;10.38;;
47625;SDS011;33342;45.574;9.252;2022-09-09T02:07:38;16.08;;;10.07;;
47625;SDS011;33342;45.574;9.252;2022-09-09T02:10:24;17.92;;;10.65;;
47625;SDS011;33342;45.574;9.252;2022-09-09T02:13:26;18.83;;;10.70;;
47625;SDS011;33342;45.574;9.252;2022-09-09T02:18:30;14.18;;;9.52;;
47625;SDS011;33342;45.574;9.252;2022-09-09T02:21:02;16.98;;;9.30;;
47625;SDS011;33342;45.574;9.252;2022-09-09T02:23:29;17.85;;;9.95;;
47625;SDS011;33342;45.574;9.252;2022-09-09T02:26:02;14.88;;;9.68;;
47625;SDS011;33342;45.574;9.252;2022-09-09T02:28:31;13.60;;;8.95;;
47625;SDS011;33342;45.574;9.252;2022-09-09T02:31:00;14.02;;;8.40;;
47625;SDS011;33342;45.574;9.252;2022-09-09T02:33:36;16.27;;;10.02;;
47625;SDS011;33342;45.574;9.252;2022-09-09T02:36:06;12.90;;;8.20;;
47625;SDS011;33342;45.574;9.252;2022-09-09T02:38:37;17.13;;;8.15;;
47625;SDS011;33342;45.574;9.252;2022-09-09T02:41:12;13.63;;;8.27;;
47625;SDS011;33342;45.574;9.252;2022-09-09T02:43:39;17.27;;;8.18;;
47625;SDS011;33342;45.574;9.252;2022-09-09T02:49:25;12.65;;;7.13;;
47625;SDS011;33342;45.574;9.252;2022-09-09T02:52:14;11.77;;;7.13;;
47625;SDS011;33342;45.574;9.252;2022-09-09T02:54:43;12.23;;;7.45;;
47625;SDS011;33342;45.574;9.252;2022-09-09T02:57:14;12.57;;;7.53;;
47625;SDS011;33342;45.574;9.252;2022-09-09T02:59:47;12.35;;;6.95;;
47625;SDS011;33342;45.574;9.252;2022-09-09T03:02:16;13.43;;;7.30;;
47625;SDS011;33342;45.574;9.252;2022-09-09T03:04:50;14.15;;;6.80;;
47625;SDS011;33342;45.574;9.252;2022-09-09T03:07:19;11.68;;;6.43;;
47625;SDS011;33342;45.574;9.252;2022-09-09T03:09:48;11.98;;;6.63;;
47625;SDS011;33342;45.574;9.252;2022-09-09T03:12:16;12.65;;;6.53;;
47625;SDS011;33342;45.574;9.252;2022-09-09T03:14:43;13.23;;;6.47;;
47625;SDS011;33342;45.574;9.252;2022-09-09T03:17:12;11.32;;;6.72;;
47625;SDS011;33342;45.574;9.252;2022-09-09T03:19:47;10.17;;;6.10;;
47625;SDS011;33342;45.574;9.252;2022-09-09T03:22:15;10.32;;;6.63;;
47625;SDS011;33342;45.574;9.252;2022-09-09T03:24:44;18.88;;;9.43;;
47625;SDS011;33342;45.574;9.252;2022-09-09T03:27:13;11.07;;;6.53;;
47625;SDS011;33342;45.574;9.252;2022-09-09T03:29:43;12.48;;;6.90;;
47625;SDS011;33342;45.574;9.252;2022-09-09T03:32:15;10.10;;;6.32;;
47625;SDS011;33342;45.574;9.252;2022-09-09T03:34:43;11.75;;;7.03;;
47625;SDS011;33342;45.574;9.252;2022-09-09T03:37:12;14.88;;;7.25;;
47625;SDS011;33342;45.574;9.252;2022-09-09T03:39:39;12.75;;;7.82;;
47625;SDS011;33342;45.574;9.252;2022-09-09T03:42:08;13.48;;;7.07;;
47625;SDS011;33342;45.574;9.252;2022-09-09T03:44:35;14.35;;;7.43;;
47625;SDS011;33342;45.574;9.252;2022-09-09T03:47:02;14.55;;;7.72;;
47625;SDS011;33342;45.574;9.252;2022-09-09T03:49:29;16.25;;;10.88;;
47625;SDS011;33342;45.574;9.252;2022-09-09T03:51:56;16.52;;;11.23;;
47625;SDS011;33342;45.574;9.252;2022-09-09T03:54:25;17.52;;;11.65;;
47625;SDS011;33342;45.574;9.252;2022-09-09T03:56:52;15.95;;;11.30;;
47625;SDS011;33342;45.574;9.252;2022-09-09T03:59:21;20.38;;;13.52;;
47625;SDS011;33342;45.574;9.252;2022-09-09T04:01:49;21.23;;;15.88;;
47625;SDS011;33342;45.574;9.252;2022-09-09T04:04:16;24.73;;;18.25;;
47625;SDS011;33342;45.574;9.252;2022-09-09T04:06:43;24.95;;;18.50;;
47625;SDS011;33342;45.574;9.252;2022-09-09T04:09:11;27.88;;;20.25;;
47625;SDS011;33342;45.574;9.252;2022-09-09T04:11:38;26.75;;;21.48;;
47625;SDS011;33342;45.574;9.252;2022-09-09T04:14:05;26.63;;;22.15;;
47625;SDS011;33342;45.574;9.252;2022-09-09T04:16:35;26.38;;;22.50;;
47625;SDS011;33342;45.574;9.252;2022-09-09T04:19:04;28.25;;;22.48;;
47625;SDS011;33342;45.574;9.252;2022-09-09T04:21:33;27.20;;;20.88;;
47625;SDS011;33342;45.574;9.252;2022-09-09T04:24:01;136.68;;;102.80;;
47625;SDS011;33342;45.574;9.252;2022-09-09T04:26:28;31.40;;;23.08;;
47625;SDS011;33342;45.574;9.252;2022-09-09T04:28:55;26.65;;;22.27;;
47625;SDS011;33342;45.574;9.252;2022-09-09T04:31:22;27.27;;;22.92;;
47625;SDS011;33342;45.574;9.252;2022-09-09T04:33:53;29.27;;;23.48;;
47625;SDS011;33342;45.574;9.252;2022-09-09T04:36:20;30.63;;;23.48;;
47625;SDS011;33342;45.574;9.252;2022-09-09T04:38:50;29.02;;;22.67;;
47625;SDS011;33342;45.574;9.252;2022-09-09T04:41:17;30.38;;;23.40;;
47625;SDS011;33342;45.574;9.252;2022-09-09T04:43:48;33.83;;;27.80;;
47625;SDS011;33342;45.574;9.252;2022-09-09T04:46:16;33.15;;;25.10;;
47625;SDS011;33342;45.574;9.252;2022-09-09T04:48:48;32.20;;;24.25;;
47625;SDS011;33342;45.574;9.252;2022-09-09T04:51:16;28.23;;;23.67;;
47625;SDS011;33342;45.574;9.252;2022-09-09T04:53:45;33.78;;;25.67;;
47625;SDS011;33342;45.574;9.252;2022-09-09T04:56:16;28.00;;;22.55;;
47625;SDS011;33342;45.574;9.252;2022-09-09T04:58:49;27.88;;;22.25;;
47625;SDS011;33342;45.574;9.252;2022-09-09T05:01:20;19.80;;;15.02;;
47625;SDS011;33342;45.574;9.252;2022-09-09T05:03:50;13.98;;;9.45;;
47625;SDS011;33342;45.574;9.252;2022-09-09T05:06:21;8.95;;;6.13;;
47625;SDS011;33342;45.574;9.252;2022-09-09T05:08:53;11.82;;;5.40;;
47625;SDS011;33342;45.574;9.252;2022-09-09T05:11:25;9.02;;;3.60;;
47625;SDS011;33342;45.574;9.252;2022-09-09T05:13:58;6.32;;;3.10;;
47625;SDS011;33342;45.574;9.252;2022-09-09T05:16:28;6.43;;;3.00;;
47625;SDS011;33342;45.574;9.252;2022-09-09T05:18:56;7.13;;;3.70;;
47625;SDS011;33342;45.574;9.252;2022-09-09T05:21:24;8.18;;;3.95;;
47625;SDS011;33342;45.574;9.252;2022-09-09T05:23:52;5.95;;;2.30;;
47625;SDS011;33342;45.574;9.252;2022-09-09T05:26:20;4.75;;;2.00;;
47625;SDS011;33342;45.574;9.252;2022-09-09T05:28:50;7.38;;;3.70;;
47625;SDS011;33342;45.574;9.252;2022-09-09T05:31:18;15.40;;;9.68;;
47625;SDS011;33342;45.574;9.252;2022-09-09T05:33:49;4.88;;;1.92;;
47625;SDS011;33342;45.574;9.252;2022-09-09T05:36:17;3.25;;;1.30;;
47625;SDS011;33342;45.574;9.252;2022-09-09T05:38:49;4.50;;;1.20;;
47625;SDS011;33342;45.574;9.252;2022-09-09T05:41:18;2.53;;;1.00;;
47625;SDS011;33342;45.574;9.252;2022-09-09T05:43:46;2.83;;;1.20;;
47625;SDS011;33342;45.574;9.252;2022-09-09T05:48:46;2.50;;;1.20;;
47625;SDS011;33342;45.574;9.252;2022-09-09T05:51:15;3.70;;;1.20;;
47625;SDS011;33342;45.574;9.252;2022-09-09T05:53:45;3.92;;;1.40;;
47625;SDS011;33342;45.574;9.252;2022-09-09T05:56:13;2.70;;;1.27;;
47625;SDS011;33342;45.574;9.252;2022-09-09T05:58:42;2.72;;;1.27;;
47625;SDS011;33342;45.574;9.252;2022-09-09T06:01:28;2.63;;;1.40;;
47625;SDS011;33342;45.574;9.252;2022-09-09T06:03:58;3.88;;;1.55;;
47625;SDS011;33342;45.574;9.252;2022-09-09T06:06:26;6.18;;;1.70;;
47625;SDS011;33342;45.574;9.252;2022-09-09T06:08:58;5.78;;;2.00;;
47625;SDS011;33342;45.574;9.252;2022-09-09T06:11:30;5.40;;;2.20;;
47625;SDS011;33342;45.574;9.252;2022-09-09T06:13:59;6.53;;;2.20;;
47625;SDS011;33342;45.574;9.252;2022-09-09T06:16:29;4.13;;;1.95;;
47625;SDS011;33342;45.574;9.252;2022-09-09T06:18:59;10.85;;;2.42;;
47625;SDS011;33342;45.574;9.252;2022-09-09T06:21:29;15.65;;;4.05;;
47625;SDS011;33342;45.574;9.252;2022-09-09T06:23:59;13.45;;;4.05;;
47625;SDS011;33342;45.574;9.252;2022-09-09T06:26:28;15.65;;;5.05;;
47625;SDS011;33342;45.574;9.252;2022-09-09T06:29:01;12.40;;;2.78;;
47625;SDS011;33342;45.574;9.252;2022-09-09T06:31:31;8.68;;;2.60;;
47625;SDS011;33342;45.574;9.252;2022-09-09T06:34:07;8.60;;;2.60;;
47625;SDS011;33342;45.574;9.252;2022-09-09T06:36:39;4.90;;;2.00;;
47625;SDS011;33342;45.574;9.252;2022-09-09T06:39:07;5.25;;;2.17;;
47625;SDS011;33342;45.574;9.252;2022-09-09T06:41:41;7.85;;;2.95;;
47625;SDS011;33342;45.574;9.252;2022-09-09T06:44:28;7.65;;;3.20;;
47625;SDS011;33342;45.574;9.252;2022-09-09T06:47:02;7.38;;;2.55;;
47625;SDS011;33342;45.574;9.252;2022-09-09T06:49:30;7.57;;;3.08;;
47625;SDS011;33342;45.574;9.252;2022-09-09T06:51:58;6.82;;;3.40;;
47625;SDS011;33342;45.574;9.252;2022-09-09T06:54:27;6.63;;;2.90;;
47625;SDS011;33342;45.574;9.252;2022-09-09T06:56:55;5.15;;;2.30;;
47625;SDS011;33342;45.574;9.252;2022-09-09T06:59:22;7.07;;;2.20;;
47625;SDS011;33342;45.574;9.252;2022-09-09T07:01:52;4.43;;;1.88;;
47625;SDS011;33342;45.574;9.252;2022-09-09T07:04:22;5.80;;;1.90;;
47625;SDS011;33342;45.574;9.252;2022-09-09T07:06:49;5.57;;;1.25;;
47625;SDS011;33342;45.574;9.252;2022-09-09T07:09:22;5.70;;;1.77;;
47625;SDS011;33342;45.574;9.252;2022-09-09T07:11:52;3.88;;;1.45;;
47625;SDS011;33342;45.574;9.252;2022-09-09T07:14:21;3.85;;;1.38;;
47625;SDS011;33342;45.574;9.252;2022-09-09T07:16:56;4.93;;;2.00;;
47625;SDS011;33342;45.574;9.252;2022-09-09T07:19:26;5.55;;;1.52;;
47625;SDS011;33342;45.574;9.252;2022-09-09T07:21:54;5.85;;;1.58;;
47625;SDS011;33342;45.574;9.252;2022-09-09T07:24:23;4.45;;;2.00;;
47625;SDS011;33342;45.574;9.252;2022-09-09T07:26:51;4.28;;;1.63;;
47625;SDS011;33342;45.574;9.252;2022-09-09T07:29:19;4.80;;;1.58;;
47625;SDS011;33342;45.574;9.252;2022-09-09T07:31:48;8.27;;;2.60;;
47625;SDS011;33342;45.574;9.252;2022-09-09T07:34:21;4.30;;;1.80;;
47625;SDS011;33342;45.574;9.252;2022-09-09T07:36:48;4.00;;;1.73;;
47625;SDS011;33342;45.574;9.252;2022-09-09T07:39:17;5.05;;;1.70;;
47625;SDS011;33342;45.574;9.252;2022-09-09T07:41:51;3.70;;;1.48;;
47625;SDS011;33342;45.574;9.252;2022-09-09T07:44:21;5.30;;;1.83;;
47625;SDS011;33342;45.574;9.252;2022-09-09T07:47:02;4.28;;;1.77;;
47625;SDS011;33342;45.574;9.252;2022-09-09T07:49:37;4.25;;;1.50;;
47625;SDS011;33342;45.574;9.252;2022-09-09T07:52:06;7.43;;;1.90;;
47625;SDS011;33342;45.574;9.252;2022-09-09T07:54:41;3.60;;;1.50;;
47625;SDS011;33342;45.574;9.252;2022-09-09T07:57:09;5.57;;;2.45;;
47625;SDS011;33342;45.574;9.252;2022-09-09T07:59:37;7.47;;;1.90;;
47625;SDS011;33342;45.574;9.252;2022-09-09T08:02:04;6.57;;;2.03;;
47625;SDS011;33342;45.574;9.252;2022-09-09T08:04:33;4.00;;;1.65;;
47625;SDS011;33342;45.574;9.252;2022-09-09T08:07:02;5.00;;;1.80;;
47625;SDS011;33342;45.574;9.252;2022-09-09T08:09:37;4.15;;;1.52;;
47625;SDS011;33342;45.574;9.252;2022-09-09T08:12:13;3.95;;;1.63;;
47625;SDS011;33342;45.574;9.252;2022-09-09T08:14:41;3.85;;;1.20;;
47625;SDS011;33342;45.574;9.252;2022-09-09T08:17:08;3.80;;;1.35;;
47625;SDS011;33342;45.574;9.252;2022-09-09T08:19:36;6.00;;;1.77;;
47625;SDS011;33342;45.574;9.252;2022-09-09T08:22:08;3.03;;;1.35;;
47625;SDS011;33342;45.574;9.252;2022-09-09T08:24:38;5.07;;;1.40;;
47625;SDS011;33342;45.574;9.252;2022-09-09T08:27:06;5.07;;;1.27;;
47625;SDS011;33342;45.574;9.252;2022-09-09T08:29:33;4.22;;;1.38;;
47625;SDS011;33342;45.574;9.252;2022-09-09T08:32:01;3.55;;;1.52;;
47625;SDS011;33342;45.574;9.252;2022-09-09T08:34:28;3.50;;;1.50;;
47625;SDS011;33342;45.574;9.252;2022-09-09T08:36:59;4.32;;;1.35;;
47625;SDS011;33342;45.574;9.252;2022-09-09T08:39:32;5.15;;;1.30;;
47625;SDS011;33342;45.574;9.252;2022-09-09T08:47:20;4.50;;;1.58;;
47625;SDS011;33342;45.574;9.252;2022-09-09T08:53:17;4.45;;;1.52;;
47625;SDS011;33342;45.574;9.252;2022-09-09T08:56:00;5.55;;;2.00;;
47625;SDS011;33342;45.574;9.252;2022-09-09T08:58:48;5.20;;;1.60;;
47625;SDS011;33342;45.574;9.252;2022-09-09T09:12:20;3.40;;;1.55;;
47625;SDS011;33342;45.574;9.252;2022-09-09T09:14:50;3.63;;;1.55;;
47625;SDS011;33342;45.574;9.252;2022-09-09T09:17:19;5.80;;;1.50;;
47625;SDS011;33342;45.574;9.252;2022-09-09T09:19:50;4.60;;;1.70;;
47625;SDS011;33342;45.574;9.252;2022-09-09T09:22:19;4.57;;;1.70;;
47625;SDS011;33342;45.574;9.252;2022-09-09T09:24:52;6.63;;;1.60;;
47625;SDS011;33342;45.574;9.252;2022-09-09T09:28:07;5.22;;;2.00;;
47625;SDS011;33342;45.574;9.252;2022-09-09T09:30:49;5.40;;;1.80;;
47625;SDS011;33342;45.574;9.252;2022-09-09T09:36:13;3.00;;;1.30;;
47625;SDS011;33342;45.574;9.252;2022-09-09T09:38:52;5.10;;;1.70;;
47625;SDS011;33342;45.574;9.252;2022-09-09T09:41:46;8.40;;;5.30;;
47625;SDS011;33342;45.574;9.252;2022-09-09T09:44:22;6.78;;;1.80;;
47625;SDS011;33342;45.574;9.252;2022-09-09T09:46:50;5.88;;;1.90;;
47625;SDS011;33342;45.574;9.252;2022-09-09T09:49:18;4.97;;;1.58;;
47625;SDS011;33342;45.574;9.252;2022-09-09T09:51:45;3.50;;;1.30;;
47625;SDS011;33342;45.574;9.252;2022-09-09T09:56:50;4.75;;;1.50;;
47625;SDS011;33342;45.574;9.252;2022-09-09T09:59:39;3.83;;;1.33;;
47625;SDS011;33342;45.574;9.252;2022-09-09T10:02:24;3.73;;;1.53;;
47625;SDS011;33342;45.574;9.252;2022-09-09T10:08:05;4.45;;;1.35;;
47625;SDS011;33342;45.574;9.252;2022-09-09T10:10:44;5.47;;;1.25;;
47625;SDS011;33342;45.574;9.252;2022-09-09T10:29:27;4.97;;;2.08;;
47625;SDS011;33342;45.574;9.252;2022-09-09T10:32:16;6.60;;;1.70;;
47625;SDS011;33342;45.574;9.252;2022-09-09T10:41:19;4.85;;;1.60;;
47625;SDS011;33342;45.574;9.252;2022-09-09T10:57:57;3.33;;;1.40;;
47625;SDS011;33342;45.574;9.252;2022-09-09T11:02:56;4.38;;;1.60;;
47625;SDS011;33342;45.574;9.252;2022-09-09T11:07:59;4.18;;;1.42;;
47625;SDS011;33342;45.574;9.252;2022-09-09T11:12:59;5.55;;;2.05;;
47625;SDS011;33342;45.574;9.252;2022-09-09T11:15:36;7.47;;;1.92;;
47625;SDS011;33342;45.574;9.252;2022-09-09T11:18:11;4.68;;;1.83;;
47625;SDS011;33342;45.574;9.252;2022-09-09T11:20:45;5.57;;;1.70;;
47625;SDS011;33342;45.574;9.252;2022-09-09T11:23:17;4.07;;;1.67;;
47625;SDS011;33342;45.574;9.252;2022-09-09T11:25:52;6.57;;;1.98;;
47625;SDS011;33342;45.574;9.252;2022-09-09T11:28:29;4.60;;;1.58;;
47625;SDS011;33342;45.574;9.252;2022-09-09T11:42:22;4.07;;;1.42;;
47625;SDS011;33342;45.574;9.252;2022-09-09T11:44:50;4.38;;;1.60;;
47625;SDS011;33342;45.574;9.252;2022-09-09T11:47:24;3.80;;;1.60;;
47625;SDS011;33342;45.574;9.252;2022-09-09T11:52:42;4.30;;;1.60;;
47625;SDS011;33342;45.574;9.252;2022-09-09T11:55:27;5.22;;;1.40;;
47625;SDS011;33342;45.574;9.252;2022-09-09T11:58:05;5.07;;;1.40;;
47625;SDS011;33342;45.574;9.252;2022-09-09T12:00:48;5.07;;;1.70;;
47625;SDS011;33342;45.574;9.252;2022-09-09T12:03:36;4.10;;;1.60;;
47625;SDS011;33342;45.574;9.252;2022-09-09T12:06:10;4.32;;;1.40;;
47625;SDS011;33342;45.574;9.252;2022-09-09T12:08:43;3.55;;;1.65;;
47625;SDS011;33342;45.574;9.252;2022-09-09T12:11:12;5.53;;;1.60;;
47625;SDS011;33342;45.574;9.252;2022-09-09T12:13:57;4.32;;;1.60;;
47625;SDS011;33342;45.574;9.252;2022-09-09T12:16:28;5.88;;;1.50;;
47625;SDS011;33342;45.574;9.252;2022-09-09T12:19:13;4.97;;;1.52;;
47625;SDS011;33342;45.574;9.252;2022-09-09T12:24:35;3.55;;;1.33;;
47625;SDS011;33342;45.574;9.252;2022-09-09T12:32:19;4.68;;;1.50;;
47625;SDS011;33342;45.574;9.252;2022-09-09T12:35:00;4.28;;;1.73;;
47625;SDS011;33342;45.574;9.252;2022-09-09T12:37:37;4.28;;;1.52;;
47625;SDS011;33342;45.574;9.252;2022-09-09T12:40:19;5.95;;;1.58;;
47625;SDS011;33342;45.574;9.252;2022-09-09T12:42:46;3.45;;;1.20;;
47625;SDS011;33342;45.574;9.252;2022-09-09T12:47:50;4.22;;;1.38;;
47625;SDS011;33342;45.574;9.252;2022-09-09T12:50:21;3.35;;;1.52;;
47625;SDS011;33342;45.574;9.252;2022-09-09T12:52:53;4.32;;;1.70;;
47625;SDS011;33342;45.574;9.252;2022-09-09T12:55:27;3.92;;;1.48;;
47625;SDS011;33342;45.574;9.252;2022-09-09T12:57:57;7.20;;;1.75;;
47625;SDS011;33342;45.574;9.252;2022-09-09T13:00:26;3.65;;;1.35;;
47625;SDS011;33342;45.574;9.252;2022-09-09T13:02:55;5.53;;;1.58;;
47625;SDS011;33342;45.574;9.252;2022-09-09T13:05:24;5.63;;;2.00;;
47625;SDS011;33342;45.574;9.252;2022-09-09T13:08:06;5.18;;;1.88;;
47625;SDS011;33342;45.574;9.252;2022-09-09T13:10:44;4.75;;;1.67;;
47625;SDS011;33342;45.574;9.252;2022-09-09T13:13:26;6.80;;;1.80;;
47625;SDS011;33342;45.574;9.252;2022-09-09T13:15:56;3.67;;;1.92;;
47625;SDS011;33342;45.574;9.252;2022-09-09T13:18:32;5.32;;;1.60;;
47625;SDS011;33342;45.574;9.252;2022-09-09T13:21:04;4.13;;;1.33;;
47625;SDS011;33342;45.574;9.252;2022-09-09T13:23:33;5.45;;;1.95;;
47625;SDS011;33342;45.574;9.252;2022-09-09T13:28:49;3.70;;;1.35;;
47625;SDS011;33342;45.574;9.252;2022-09-09T13:31:21;6.95;;;1.65;;
47625;SDS011;33342;45.574;9.252;2022-09-09T13:33:55;3.78;;;1.70;;
47625;SDS011;33342;45.574;9.252;2022-09-09T13:36:30;6.50;;;2.05;;
47625;SDS011;33342;45.574;9.252;2022-09-09T13:41:33;5.82;;;2.00;;
47625;SDS011;33342;45.574;9.252;2022-09-09T13:44:27;4.65;;;2.00;;
47625;SDS011;33342;45.574;9.252;2022-09-09T13:49:47;3.97;;;1.60;;
47625;SDS011;33342;45.574;9.252;2022-09-09T13:52:16;3.75;;;1.83;;
47625;SDS011;33342;45.574;9.252;2022-09-09T13:54:48;4.97;;;1.70;;
47625;SDS011;33342;45.574;9.252;2022-09-09T13:57:24;5.20;;;1.65;;
47625;SDS011;33342;45.574;9.252;2022-09-09T13:59:52;4.17;;;1.40;;
47625;SDS011;33342;45.574;9.252;2022-09-09T14:02:36;7.30;;;2.35;;
47625;SDS011;33342;45.574;9.252;2022-09-09T14:05:05;6.38;;;1.83;;
47625;SDS011;33342;45.574;9.252;2022-09-09T14:07:32;3.75;;;1.40;;
47625;SDS011;33342;45.574;9.252;2022-09-09T14:09:59;5.75;;;2.03;;
47625;SDS011;33342;45.574;9.252;2022-09-09T14:12:26;5.35;;;1.63;;
47625;SDS011;33342;45.574;9.252;2022-09-09T14:14:53;6.78;;;2.08;;
47625;SDS011;33342;45.574;9.252;2022-09-09T14:17:20;6.88;;;1.80;;
47625;SDS011;33342;45.574;9.252;2022-09-09T14:19:48;4.70;;;1.80;;
47625;SDS011;33342;45.574;9.252;2022-09-09T14:22:15;5.18;;;2.00;;
47625;SDS011;33342;45.574;9.252;2022-09-09T14:24:42;4.68;;;1.75;;
47625;SDS011;33342;45.574;9.252;2022-09-09T14:27:09;5.88;;;2.38;;
47625;SDS011;33342;45.574;9.252;2022-09-09T14:29:36;6.25;;;2.10;;
47625;SDS011;33342;45.574;9.252;2022-09-09T14:32:03;5.90;;;1.88;;
47625;SDS011;33342;45.574;9.252;2022-09-09T14:34:36;4.45;;;1.70;;
47625;SDS011;33342;45.574;9.252;2022-09-09T14:37:03;4.35;;;1.90;;
47625;SDS011;33342;45.574;9.252;2022-09-09T14:39:30;4.18;;;1.52;;
47625;SDS011;33342;45.574;9.252;2022-09-09T14:41:58;5.82;;;1.98;;
47625;SDS011;33342;45.574;9.252;2022-09-09T14:44:25;2.72;;;1.60;;
47625;SDS011;33342;45.574;9.252;2022-09-09T14:46:52;4.28;;;1.70;;
47625;SDS011;33342;45.574;9.252;2022-09-09T14:49:21;3.95;;;1.60;;
47625;SDS011;33342;45.574;9.252;2022-09-09T14:51:48;3.83;;;1.67;;
47625;SDS011;33342;45.574;9.252;2022-09-09T14:54:15;6.10;;;1.63;;
47625;SDS011;33342;45.574;9.252;2022-09-09T14:56:42;3.60;;;1.65;;
47625;SDS011;33342;45.574;9.252;2022-09-09T14:59:09;5.32;;;1.70;;
47625;SDS011;33342;45.574;9.252;2022-09-09T15:01:36;5.18;;;1.70;;
47625;SDS011;33342;45.574;9.252;2022-09-09T15:04:04;5.15;;;1.48;;
47625;SDS011;33342;45.574;9.252;2022-09-09T15:06:33;5.40;;;1.70;;
47625;SDS011;33342;45.574;9.252;2022-09-09T15:09:02;4.47;;;1.60;;
47625;SDS011;33342;45.574;9.252;2022-09-09T15:11:30;6.03;;;1.60;;
47625;SDS011;33342;45.574;9.252;2022-09-09T15:14:04;4.57;;;1.70;;
47625;SDS011;33342;45.574;9.252;2022-09-09T15:16:32;4.72;;;1.80;;
47625;SDS011;33342;45.574;9.252;2022-09-09T15:19:00;6.30;;;1.50;;
47625;SDS011;33342;45.574;9.252;2022-09-09T15:21:31;4.13;;;1.42;;
47625;SDS011;33342;45.574;9.252;2022-09-09T15:24:00;3.92;;;1.60;;
47625;SDS011;33342;45.574;9.252;2022-09-09T15:26:27;4.55;;;1.48;;
47625;SDS011;33342;45.574;9.252;2022-09-09T15:28:55;5.65;;;1.67;;
47625;SDS011;33342;45.574;9.252;2022-09-09T15:31:29;4.18;;;1.50;;
47625;SDS011;33342;45.574;9.252;2022-09-09T15:33:59;3.88;;;1.73;;
47625;SDS011;33342;45.574;9.252;2022-09-09T15:36:29;4.03;;;1.65;;
47625;SDS011;33342;45.574;9.252;2022-09-09T15:38:59;5.68;;;1.40;;
47625;SDS011;33342;45.574;9.252;2022-09-09T15:41:27;4.60;;;1.40;;
47625;SDS011;33342;45.574;9.252;2022-09-09T15:43:55;4.60;;;1.80;;
47625;SDS011;33342;45.574;9.252;2022-09-09T15:46:30;3.45;;;1.20;;
47625;SDS011;33342;45.574;9.252;2022-09-09T15:51:51;2.92;;;1.33;;
47625;SDS011;33342;45.574;9.252;2022-09-09T15:54:20;5.93;;;1.50;;
47625;SDS011;33342;45.574;9.252;2022-09-09T15:56:51;4.95;;;1.58;;
47625;SDS011;33342;45.574;9.252;2022-09-09T15:59:25;6.93;;;1.60;;
47625;SDS011;33342;45.574;9.252;2022-09-09T16:01:54;4.22;;;1.73;;
47625;SDS011;33342;45.574;9.252;2022-09-09T16:04:22;3.90;;;1.60;;
47625;SDS011;33342;45.574;9.252;2022-09-09T16:06:51;3.45;;;1.65;;
47625;SDS011;33342;45.574;9.252;2022-09-09T16:09:29;5.85;;;1.80;;
47625;SDS011;33342;45.574;9.252;2022-09-09T16:11:58;6.47;;;1.67;;
47625;SDS011;33342;45.574;9.252;2022-09-09T16:14:27;3.97;;;1.58;;
47625;SDS011;33342;45.574;9.252;2022-09-09T16:17:00;3.55;;;1.60;;
47625;SDS011;33342;45.574;9.252;2022-09-09T16:19:27;4.35;;;1.65;;
47625;SDS011;33342;45.574;9.252;2022-09-09T16:21:54;6.47;;;2.03;;
47625;SDS011;33342;45.574;9.252;2022-09-09T16:24:21;6.07;;;1.80;;
47625;SDS011;33342;45.574;9.252;2022-09-09T16:26:50;4.93;;;1.52;;
47625;SDS011;33342;45.574;9.252;2022-09-09T16:29:20;2.92;;;1.25;;
47625;SDS011;33342;45.574;9.252;2022-09-09T16:31:48;5.07;;;1.45;;
47625;SDS011;33342;45.574;9.252;2022-09-09T16:34:16;4.38;;;1.40;;
47625;SDS011;33342;45.574;9.252;2022-09-09T16:36:44;3.83;;;1.60;;
47625;SDS011;33342;45.574;9.252;2022-09-09T16:39:13;4.43;;;1.60;;
47625;SDS011;33342;45.574;9.252;2022-09-09T16:41:42;3.83;;;1.60;;
47625;SDS011;33342;45.574;9.252;2022-09-09T16:44:12;4.72;;;1.67;;
47625;SDS011;33342;45.574;9.252;2022-09-09T16:46:40;3.00;;;1.40;;
47625;SDS011;33342;45.574;9.252;2022-09-09T16:49:16;4.03;;;1.60;;
47625;SDS011;33342;45.574;9.252;2022-09-09T16:51:44;4.25;;;1.63;;
47625;SDS011;33342;45.574;9.252;2022-09-09T16:54:16;4.15;;;1.63;;
47625;SDS011;33342;45.574;9.252;2022-09-09T16:56:45;3.17;;;1.45;;
47625;SDS011;33342;45.574;9.252;2022-09-09T16:59:15;3.97;;;1.50;;
47625;SDS011;33342;45.574;9.252;2022-09-09T17:01:47;3.70;;;1.52;;
47625;SDS011;33342;45.574;9.252;2022-09-09T17:04:19;3.03;;;1.75;;
47625;SDS011;33342;45.574;9.252;2022-09-09T17:06:51;4.13;;;1.83;;
47625;SDS011;33342;45.574;9.252;2022-09-09T17:09:20;4.57;;;1.67;;
47625;SDS011;33342;45.574;9.252;2022-09-09T17:11:49;7.32;;;1.90;;
47625;SDS011;33342;45.574;9.252;2022-09-09T17:14:20;5.07;;;1.88;;
47625;SDS011;33342;45.574;9.252;2022-09-09T17:16:48;5.45;;;1.52;;
47625;SDS011;33342;45.574;9.252;2022-09-09T17:19:15;3.30;;;1.60;;
47625;SDS011;33342;45.574;9.252;2022-09-09T17:21:42;6.85;;;2.90;;
47625;SDS011;33342;45.574;9.252;2022-09-09T17:24:30;6.15;;;1.90;;
47625;SDS011;33342;45.574;9.252;2022-09-09T17:26:57;9.25;;;2.10;;
47625;SDS011;33342;45.574;9.252;2022-09-09T17:29:24;3.60;;;1.60;;
47625;SDS011;33342;45.574;9.252;2022-09-09T17:31:51;5.78;;;1.90;;
47625;SDS011;33342;45.574;9.252;2022-09-09T17:34:19;6.10;;;1.83;;
47625;SDS011;33342;45.574;9.252;2022-09-09T17:36:46;5.90;;;2.28;;
47625;SDS011;33342;45.574;9.252;2022-09-09T17:39:14;6.50;;;1.75;;
47625;SDS011;33342;45.574;9.252;2022-09-09T17:41:41;5.00;;;2.00;;
47625;SDS011;33342;45.574;9.252;2022-09-09T17:44:08;6.40;;;2.00;;
47625;SDS011;33342;45.574;9.252;2022-09-09T17:46:37;5.50;;;1.95;;
47625;SDS011;33342;45.574;9.252;2022-09-09T17:49:11;5.93;;;1.85;;
47625;SDS011;33342;45.574;9.252;2022-09-09T17:51:40;6.88;;;2.33;;
47625;SDS011;33342;45.574;9.252;2022-09-09T17:54:17;4.65;;;2.00;;